Ascanius — V7FS9 — position and weather

sailwx.info

Track history (hours):
 
Tides and Currents Weather Stations Pressure Air Temp Water Temp Dewpoint Dewpoint Depression Visibility Wind Speed Wind Dir Waves Ship Positions

Ascanius

Last reported at 2014-Nov-10 11:33 UTC. Time now 2014-Dec-21 19:26 UTC.
Position N 01°11' E 103°48'.
Warning: this ship's position is 41 days out of date.

Length 225 m; draft 14.1 m.

Type: Cargo ship. MMSI: 538002012.

Date/timePositionNaut miles runAvg speedWind from/ knotsBaromVisibWave heightAir tempDewpointWater temp
2014-Nov-10 11:33N 01°11' E 103°48'10 9.9
2014-Nov-10 10:32N 01°15' E 103°57'2 1.9
2014-Nov-10 09:24N 01°17' E 103°58'0 0.0
2014-Nov-10 08:27N 01°17' E 103°58'0 0.0
2014-Nov-10 07:15N 01°17' E 103°58'0 0.1
2014-Nov-10 06:30N 01°17' E 103°58'0 0.1
2014-Nov-10 05:06N 01°17' E 103°58'0 0.1
2014-Nov-10 04:27N 01°17' E 103°58'0 0.1
2014-Nov-10 03:21N 01°17' E 103°58'0 0.0
2014-Nov-10 02:09N 01°17' E 103°58'0 0.0
2014-Nov-10 00:18N 01°17' E 103°58'0 0.0
2014-Nov-09 23:33N 01°17' E 103°58'0 0.0
2014-Nov-09 22:33N 01°17' E 103°58'0 0.0
2014-Nov-09 21:33N 01°17' E 103°58'0 0.0
2014-Nov-09 20:18N 01°17' E 103°58'0 0.0
2014-Nov-09 19:33N 01°17' E 103°58'0 0.0
2014-Nov-09 18:33N 01°17' E 103°58'0 0.0
2014-Nov-09 17:21N 01°17' E 103°58'0 0.0
2014-Nov-09 16:09N 01°17' E 103°58'0 0.0
2014-Nov-09 15:15N 01°17' E 103°58'0 0.1
2014-Nov-09 14:33N 01°17' E 103°58'0 0.1
2014-Nov-09 13:31N 01°17' E 103°58'1 1.5
2014-Nov-09 12:33N 01°15' E 103°59'1410.6
2014-Nov-09 11:16N 01°18' E 104°13'  
2014-Nov-06 21:20S 04°21' E 113°28'912.2
2014-Nov-06 20:33S 04°22' E 113°38'4510.5
2014-Nov-06 16:15S 04°06' E 114°20'811.8
2014-Nov-06 15:33S 03°58' E 114°23'1311.3
2014-Nov-06 14:27S 03°46' E 114°27'3 3.9
2014-Nov-06 13:33S 03°43' E 114°28'0 0.1
2014-Nov-06 12:33S 03°43' E 114°28'0 0.0
2014-Nov-06 11:33S 03°43' E 114°28'0 0.0
2014-Nov-06 10:33S 03°43' E 114°28'0 0.0
2014-Nov-06 04:32S 03°43' E 114°28'0 0.1
2014-Nov-06 03:33S 03°43' E 114°28'0 0.0
2014-Nov-06 02:33S 03°43' E 114°28'0 0.0
2014-Nov-06 01:33S 03°43' E 114°28'0 0.0
2014-Nov-06 00:33S 03°43' E 114°28'0 0.0
2014-Nov-05 23:33S 03°43' E 114°28'0 0.0
2014-Nov-05 22:33S 03°43' E 114°28'0 0.0
2014-Nov-05 21:33S 03°43' E 114°28'0 0.1
2014-Nov-05 20:33S 03°43' E 114°28'0 0.1
2014-Nov-05 19:33S 03°43' E 114°28'0 0.1
2014-Nov-05 18:33S 03°43' E 114°28'0 0.0
2014-Nov-05 17:33S 03°43' E 114°28'0 0.1
2014-Nov-05 16:33S 03°43' E 114°28'0 0.0
2014-Nov-05 15:33S 03°43' E 114°28'0 0.0
2014-Nov-05 14:33S 03°43' E 114°28'0 0.0
2014-Nov-05 13:33S 03°43' E 114°28'0 0.0
2014-Nov-05 12:33S 03°43' E 114°28'0 0.0
2014-Nov-05 11:33S 03°43' E 114°28'0 0.0
2014-Nov-05 10:33S 03°43' E 114°28'0 0.0
2014-Nov-05 09:33S 03°43' E 114°28'0 0.1
2014-Nov-05 08:33S 03°43' E 114°28'0 0.1
2014-Nov-05 07:33S 03°43' E 114°28'0 0.0
2014-Nov-05 06:33S 03°43' E 114°28'0 0.0
2014-Nov-05 05:33S 03°43' E 114°28'0 0.0
2014-Nov-05 04:33S 03°43' E 114°28'0 0.0
2014-Nov-05 03:33S 03°43' E 114°28'0 0.0
2014-Nov-05 02:33S 03°43' E 114°28'0 0.1
2014-Nov-05 01:33S 03°43' E 114°28'0 0.1
2014-Nov-05 00:32S 03°43' E 114°28'0 0.1
2014-Nov-04 23:33S 03°43' E 114°28'0 0.0
2014-Nov-04 22:33S 03°43' E 114°28'0 0.1
2014-Nov-04 21:33S 03°43' E 114°28'0 0.1
2014-Nov-04 20:33S 03°43' E 114°28'0 0.1
2014-Nov-04 19:33S 03°43' E 114°28'0 0.1
2014-Nov-04 18:33S 03°43' E 114°28'0 0.0
2014-Nov-04 17:33S 03°43' E 114°28'0 0.1
2014-Nov-04 16:33S 03°43' E 114°28'0 0.0
2014-Nov-04 15:33S 03°43' E 114°28'0 0.1
2014-Nov-04 14:33S 03°43' E 114°28'0 0.1
2014-Nov-04 13:33S 03°43' E 114°28'0 0.0
2014-Nov-04 11:14S 03°43' E 114°28'0 0.1
2014-Nov-04 10:33S 03°43' E 114°28'0 0.0
2014-Nov-04 09:33S 03°43' E 114°28'0 0.1
2014-Nov-04 08:33S 03°43' E 114°28'0 0.0
2014-Nov-04 07:33S 03°43' E 114°28'0 0.0
2014-Nov-04 06:33S 03°43' E 114°28'0 0.0
2014-Nov-04 05:33S 03°43' E 114°28'0 0.0
2014-Nov-04 04:33S 03°43' E 114°28'0 0.0
2014-Nov-04 03:33S 03°43' E 114°28'0 0.1
2014-Nov-04 02:33S 03°43' E 114°28'0 0.1
2014-Nov-04 01:33S 03°43' E 114°28'0 0.0
2014-Nov-04 00:33S 03°43' E 114°28'0 0.0
2014-Nov-03 23:33S 03°43' E 114°28'0 0.0
2014-Nov-03 22:33S 03°43' E 114°28'0 0.1
2014-Nov-03 21:33S 03°43' E 114°28'0 0.0
2014-Nov-03 20:33S 03°43' E 114°28'0 0.1
2014-Nov-03 19:33S 03°43' E 114°28'0 0.0
2014-Nov-03 19:09S 03°43' E 114°28'0 0.0
2014-Nov-03 18:33S 03°43' E 114°28'0 0.0
2014-Nov-03 18:12S 03°43' E 114°28'0 0.1
2014-Nov-03 17:50S 03°43' E 114°28'0 0.1
2014-Nov-03 17:33S 03°43' E 114°28'0 0.0
2014-Nov-03 16:33S 03°43' E 114°28'0 0.0
2014-Nov-03 14:33S 03°43' E 114°28'0 0.0
2014-Nov-03 13:33S 03°43' E 114°28'0 0.1
2014-Nov-03 12:33S 03°43' E 114°28'0 0.1
2014-Nov-03 11:33S 03°43' E 114°28'0 0.0
2014-Nov-03 10:33S 03°43' E 114°28'0 0.1
2014-Nov-03 09:33S 03°43' E 114°28'0 0.1
2014-Nov-03 08:33S 03°43' E 114°28'0 0.3
2014-Nov-03 07:30S 03°43' E 114°28'6 6.0
2014-Nov-03 06:33S 03°48' E 114°26'  
Track history (hours):
 
Tides and Currents Weather Stations Pressure Air Temp Water Temp Dewpoint Dewpoint Depression Visibility Wind Speed Wind Dir Waves Ship Positions

Ascanius

Last reported at 2014-Nov-10 11:33 UTC. Time now 2014-Dec-21 19:26 UTC.
Position N 01°11' E 103°48'.
Warning: this ship's position is 41 days out of date.

Length 225 m; draft 14.1 m.

Type: Cargo ship. MMSI: 538002012.

Date/timePositionNaut miles runAvg speedWind from/ knotsBaromVisibWave heightAir tempDewpointWater temp
2014-Nov-10 11:33N 01°11' E 103°48'10 9.9
2014-Nov-10 10:32N 01°15' E 103°57'2 1.9
2014-Nov-10 09:24N 01°17' E 103°58'0 0.0
2014-Nov-10 08:27N 01°17' E 103°58'0 0.0
2014-Nov-10 07:15N 01°17' E 103°58'0 0.1
2014-Nov-10 06:30N 01°17' E 103°58'0 0.1
2014-Nov-10 05:06N 01°17' E 103°58'0 0.1
2014-Nov-10 04:27N 01°17' E 103°58'0 0.1
2014-Nov-10 03:21N 01°17' E 103°58'0 0.0
2014-Nov-10 02:09N 01°17' E 103°58'0 0.0
2014-Nov-10 00:18N 01°17' E 103°58'0 0.0
2014-Nov-09 23:33N 01°17' E 103°58'0 0.0
2014-Nov-09 22:33N 01°17' E 103°58'0 0.0
2014-Nov-09 21:33N 01°17' E 103°58'0 0.0
2014-Nov-09 20:18N 01°17' E 103°58'0 0.0
2014-Nov-09 19:33N 01°17' E 103°58'0 0.0
2014-Nov-09 18:33N 01°17' E 103°58'0 0.0
2014-Nov-09 17:21N 01°17' E 103°58'0 0.0
2014-Nov-09 16:09N 01°17' E 103°58'0 0.0
2014-Nov-09 15:15N 01°17' E 103°58'0 0.1
2014-Nov-09 14:33N 01°17' E 103°58'0 0.1
2014-Nov-09 13:31N 01°17' E 103°58'1 1.5
2014-Nov-09 12:33N 01°15' E 103°59'1410.6
2014-Nov-09 11:16N 01°18' E 104°13'  
2014-Nov-06 21:20S 04°21' E 113°28'912.2
2014-Nov-06 20:33S 04°22' E 113°38'4510.5
2014-Nov-06 16:15S 04°06' E 114°20'811.8
2014-Nov-06 15:33S 03°58' E 114°23'1311.3
2014-Nov-06 14:27S 03°46' E 114°27'3 3.9
2014-Nov-06 13:33S 03°43' E 114°28'0 0.1
2014-Nov-06 12:33S 03°43' E 114°28'0 0.0
2014-Nov-06 11:33S 03°43' E 114°28'0 0.0
2014-Nov-06 10:33S 03°43' E 114°28'0 0.0
2014-Nov-06 04:32S 03°43' E 114°28'0 0.1
2014-Nov-06 03:33S 03°43' E 114°28'0 0.0
2014-Nov-06 02:33S 03°43' E 114°28'0 0.0
2014-Nov-06 01:33S 03°43' E 114°28'0 0.0
2014-Nov-06 00:33S 03°43' E 114°28'0 0.0
2014-Nov-05 23:33S 03°43' E 114°28'0 0.0
2014-Nov-05 22:33S 03°43' E 114°28'0 0.0
2014-Nov-05 21:33S 03°43' E 114°28'0 0.1
2014-Nov-05 20:33S 03°43' E 114°28'0 0.1
2014-Nov-05 19:33S 03°43' E 114°28'0 0.1
2014-Nov-05 18:33S 03°43' E 114°28'0 0.0
2014-Nov-05 17:33S 03°43' E 114°28'0 0.1
2014-Nov-05 16:33S 03°43' E 114°28'0 0.0
2014-Nov-05 15:33S 03°43' E 114°28'0 0.0
2014-Nov-05 14:33S 03°43' E 114°28'0 0.0
2014-Nov-05 13:33S 03°43' E 114°28'0 0.0
2014-Nov-05 12:33S 03°43' E 114°28'0 0.0
2014-Nov-05 11:33S 03°43' E 114°28'0 0.0
2014-Nov-05 10:33S 03°43' E 114°28'0 0.0
2014-Nov-05 09:33S 03°43' E 114°28'0 0.1
2014-Nov-05 08:33S 03°43' E 114°28'0 0.1
2014-Nov-05 07:33S 03°43' E 114°28'0 0.0
2014-Nov-05 06:33S 03°43' E 114°28'0 0.0
2014-Nov-05 05:33S 03°43' E 114°28'0 0.0
2014-Nov-05 04:33S 03°43' E 114°28'0 0.0
2014-Nov-05 03:33S 03°43' E 114°28'0 0.0
2014-Nov-05 02:33S 03°43' E 114°28'0 0.1
2014-Nov-05 01:33S 03°43' E 114°28'0 0.1
2014-Nov-05 00:32S 03°43' E 114°28'0 0.1
2014-Nov-04 23:33S 03°43' E 114°28'0 0.0
2014-Nov-04 22:33S 03°43' E 114°28'0 0.1
2014-Nov-04 21:33S 03°43' E 114°28'0 0.1
2014-Nov-04 20:33S 03°43' E 114°28'0 0.1
2014-Nov-04 19:33S 03°43' E 114°28'0 0.1
2014-Nov-04 18:33S 03°43' E 114°28'0 0.0
2014-Nov-04 17:33S 03°43' E 114°28'0 0.1
2014-Nov-04 16:33S 03°43' E 114°28'0 0.0
2014-Nov-04 15:33S 03°43' E 114°28'0 0.1
2014-Nov-04 14:33S 03°43' E 114°28'0 0.1
2014-Nov-04 13:33S 03°43' E 114°28'0 0.0
2014-Nov-04 11:14S 03°43' E 114°28'0 0.1
2014-Nov-04 10:33S 03°43' E 114°28'0 0.0
2014-Nov-04 09:33S 03°43' E 114°28'0 0.1
2014-Nov-04 08:33S 03°43' E 114°28'0 0.0
2014-Nov-04 07:33S 03°43' E 114°28'0 0.0
2014-Nov-04 06:33S 03°43' E 114°28'0 0.0
2014-Nov-04 05:33S 03°43' E 114°28'0 0.0
2014-Nov-04 04:33S 03°43' E 114°28'0 0.0
2014-Nov-04 03:33S 03°43' E 114°28'0 0.1
2014-Nov-04 02:33S 03°43' E 114°28'0 0.1
2014-Nov-04 01:33S 03°43' E 114°28'0 0.0
2014-Nov-04 00:33S 03°43' E 114°28'0 0.0
2014-Nov-03 23:33S 03°43' E 114°28'0 0.0
2014-Nov-03 22:33S 03°43' E 114°28'0 0.1
2014-Nov-03 21:33S 03°43' E 114°28'0 0.0
2014-Nov-03 20:33S 03°43' E 114°28'0 0.1
2014-Nov-03 19:33S 03°43' E 114°28'0 0.0
2014-Nov-03 19:09S 03°43' E 114°28'0 0.0
2014-Nov-03 18:33S 03°43' E 114°28'0 0.0
2014-Nov-03 18:12S 03°43' E 114°28'0 0.1
2014-Nov-03 17:50S 03°43' E 114°28'0 0.1
2014-Nov-03 17:33S 03°43' E 114°28'0 0.0
2014-Nov-03 16:33S 03°43' E 114°28'0 0.0
2014-Nov-03 14:33S 03°43' E 114°28'0 0.0
2014-Nov-03 13:33S 03°43' E 114°28'0 0.1
2014-Nov-03 12:33S 03°43' E 114°28'0 0.1
2014-Nov-03 11:33S 03°43' E 114°28'0 0.0
2014-Nov-03 10:33S 03°43' E 114°28'0 0.1
2014-Nov-03 09:33S 03°43' E 114°28'0 0.1
2014-Nov-03 08:33S 03°43' E 114°28'0 0.3
2014-Nov-03 07:30S 03°43' E 114°28'6 6.0
2014-Nov-03 06:33S 03°48' E 114°26'  

Dump ship's entire track history